createdAt,value
2017-11-22T00:00:04.397Z,86.27
2017-11-22T00:05:03.574Z,86.65
2017-11-22T00:10:03.251Z,86.55
2017-11-22T00:15:03.702Z,86.65
2017-11-22T00:20:03.115Z,86.75
2017-11-22T00:25:03.520Z,86.46
2017-11-22T00:30:03.045Z,86.27
2017-11-22T00:35:03.552Z,86.65
2017-11-22T00:40:03.200Z,87.13
2017-11-22T00:45:03.644Z,87.7
2017-11-22T00:50:03.325Z,86.55
2017-11-22T00:55:03.746Z,86.9
2017-11-22T01:00:03.306Z,86.9
2017-11-22T01:05:03.144Z,86.7
2017-11-22T01:10:03.651Z,86.51
2017-11-22T01:15:03.165Z,86.75
2017-11-22T01:20:03.583Z,86.42
2017-11-22T01:25:03.021Z,86.27
2017-11-22T01:30:03.497Z,86.55
2017-11-22T01:35:03.014Z,86.94
2017-11-22T01:40:03.628Z,87.89
2017-11-22T01:45:03.036Z,89.03
2017-11-22T01:50:03.511Z,89.61
2017-11-22T01:55:03.158Z,90.46
2017-11-22T02:00:03.649Z,90.46
2017-11-22T02:05:03.244Z,91.03
2017-11-22T02:10:03.757Z,91.13
2017-11-22T02:15:03.388Z,91.99
2017-11-22T02:20:03.121Z,91.51
2017-11-22T02:25:03.765Z,91.41
2017-11-22T02:30:03.299Z,91.79
2017-11-22T02:35:02.814Z,92.18
2017-11-22T02:40:03.411Z,91.89
2017-11-22T02:45:03.006Z,92.18
2017-11-22T02:50:03.587Z,92.18
2017-11-22T02:55:03.024Z,91.51
2017-11-22T03:00:03.556Z,91.6
2017-11-22T03:05:03.131Z,92.27
2017-11-22T03:10:02.746Z,92.08
2017-11-22T03:15:03.369Z,92.84
2017-11-22T03:20:02.954Z,93.08
2017-11-22T03:25:03.448Z,93.74
2017-11-22T03:30:03.091Z,94.03
2017-11-22T03:35:03.720Z,94.51
2017-11-22T03:40:03.362Z,94.32
2017-11-22T03:45:03.773Z,93.65
2017-11-22T03:50:03.242Z,94.6
2017-11-22T03:55:03.727Z,94.79
2017-11-22T04:00:03.172Z,95.17
2017-11-22T04:05:03.756Z,95.46
2017-11-22T04:10:03.397Z,95.36
2017-11-22T04:15:02.911Z,94.79
2017-11-22T04:20:03.380Z,94.79
2017-11-22T04:25:02.823Z,95.27
2017-11-22T04:30:03.289Z,96.22
2017-11-22T04:35:02.774Z,95.94
2017-11-22T04:40:03.428Z,95.84
2017-11-22T04:45:02.976Z,96.41
2017-11-22T04:50:03.543Z,96.32
2017-11-22T04:55:03.125Z,96.41
2017-11-22T05:00:03.552Z,96.98
2017-11-22T05:05:03.098Z,97.56
2017-11-22T05:10:03.618Z,97.17
2017-11-22T05:15:03.260Z,97.27
2017-11-22T05:20:03.767Z,97.27
2017-11-22T05:25:03.238Z,97.94
2017-11-22T05:30:02.837Z,97.84
2017-11-22T05:35:03.466Z,97.17
2017-11-22T05:40:03.107Z,97.84
2017-11-22T05:45:03.728Z,98.13
2017-11-22T05:50:03.305Z,98.32
2017-11-22T05:55:03.691Z,98.22
2017-11-22T06:00:03.328Z,98.22
2017-11-22T06:05:02.977Z,98.13
2017-11-22T06:10:03.478Z,97.75
2017-11-22T06:15:03.104Z,97.84
2017-11-22T06:20:03.710Z,97.84
2017-11-22T06:25:03.243Z,97.08
2017-11-22T06:30:02.849Z,97.46
2017-11-22T06:35:03.416Z,97.56
2017-11-22T06:40:02.982Z,96.98
2017-11-22T06:45:03.614Z,96.98
2017-11-22T06:50:03.144Z,97.36
2017-11-22T06:55:03.634Z,97.27
2017-11-22T07:00:03.164Z,96.98
2017-11-22T07:05:03.681Z,96.98
2017-11-22T07:10:03.362Z,96.32
2017-11-22T07:15:02.832Z,96.41
2017-11-22T07:20:03.404Z,96.7
2017-11-22T07:25:03.027Z,96.41
2017-11-22T07:30:03.707Z,96.22
2017-11-22T07:35:03.291Z,96.22
2017-11-22T07:40:02.772Z,97.27
2017-11-22T07:45:03.246Z,97.65
2017-11-22T07:50:02.931Z,97.27
2017-11-22T07:55:03.400Z,97.75
2017-11-22T08:00:02.845Z,97.94
2017-11-22T08:05:03.341Z,98.32
2017-11-22T08:10:02.850Z,98.79
2017-11-22T08:15:03.422Z,98.41
2017-11-22T08:20:03.029Z,98.89
2017-11-22T08:25:03.631Z,99.27
2017-11-22T08:30:03.424Z,99.55
2017-11-22T08:35:03.316Z,98.32
2017-11-22T08:40:02.921Z,98.41
2017-11-22T08:45:03.457Z,98.99
2017-11-22T08:50:03.022Z,98.89
2017-11-22T08:55:03.656Z,98.79
2017-11-22T09:00:03.189Z,99.55
2017-11-22T09:05:02.886Z,99.6
2017-11-22T09:10:03.577Z,98.94
2017-11-22T09:15:03.211Z,99.13
2017-11-22T09:20:02.918Z,99.6
2017-11-22T09:25:03.657Z,99.7
2017-11-22T09:30:03.105Z,99.99
2017-11-22T09:35:03.893Z,99.99
2017-11-22T09:40:03.383Z,99.8
2017-11-22T09:45:02.866Z,99.99
2017-11-22T09:50:03.445Z,99.99
2017-11-22T09:55:02.912Z,99.99
2017-11-22T10:00:03.487Z,99.89
2017-11-22T10:10:03.548Z,99.99
2017-11-22T10:15:03.121Z,99.99
2017-11-22T10:20:02.822Z,99.99
2017-11-22T10:25:03.220Z,99.99
2017-11-22T10:30:03.651Z,99.99
2017-11-22T10:35:03.077Z,99.99
2017-11-22T10:40:03.679Z,99.99
2017-11-22T10:45:03.135Z,99.99
2017-11-22T10:50:03.632Z,99.99
2017-11-22T10:55:03.103Z,99.99
2017-11-22T11:00:03.597Z,99.99
2017-11-22T11:05:03.300Z,99.99
2017-11-22T11:10:02.953Z,99.99
2017-11-22T11:15:03.613Z,99.99
2017-11-22T11:20:03.326Z,99.99
2017-11-22T11:25:02.835Z,99.99
2017-11-22T11:30:03.459Z,99.99
2017-11-22T11:35:03.199Z,99.99
2017-11-22T11:40:02.893Z,99.99
2017-11-22T11:45:03.459Z,99.99
2017-11-22T11:50:02.979Z,99.99
2017-11-22T11:55:03.500Z,99.99
2017-11-22T12:05:03.679Z,99.99
2017-11-22T12:10:03.329Z,99.99
2017-11-22T12:15:02.873Z,99.99
2017-11-22T12:20:03.485Z,99.99
2017-11-22T12:25:02.865Z,99.99
2017-11-22T12:30:03.342Z,99.99
2017-11-22T12:35:03.036Z,99.99
2017-11-22T12:40:03.552Z,99.99
2017-11-22T12:45:02.999Z,99.99
2017-11-22T12:50:03.444Z,99.99
2017-11-22T12:55:03.091Z,99.99
2017-11-22T13:00:03.678Z,99.99
2017-11-22T13:05:03.127Z,99.99
2017-11-22T13:10:02.818Z,99.99
2017-11-22T13:15:03.438Z,99.99
2017-11-22T13:20:03.120Z,99.99
2017-11-22T13:25:03.774Z,99.99
2017-11-22T13:30:03.274Z,99.99
2017-11-22T13:35:02.922Z,99.99
2017-11-22T13:40:03.545Z,99.99
2017-11-22T13:45:03.178Z,99.99
2017-11-22T13:50:02.884Z,99.99
2017-11-22T13:55:03.314Z,99.99
2017-11-22T14:00:03.722Z,99.99
2017-11-22T14:05:03.177Z,99.99
2017-11-22T14:10:02.821Z,99.99
2017-11-22T14:15:03.321Z,99.99
2017-11-22T14:20:02.956Z,99.99
2017-11-22T14:25:03.461Z,99.99
2017-11-22T14:30:02.929Z,99.99
2017-11-22T14:35:03.392Z,99.99
2017-11-22T14:40:03.065Z,99.99
2017-11-22T14:45:03.646Z,99.99
2017-11-22T14:50:03.180Z,99.99
2017-11-22T14:55:03.779Z,99.99
2017-11-22T15:00:03.427Z,99.99
2017-11-22T15:05:02.860Z,99.99
2017-11-22T15:10:03.417Z,99.99
2017-11-22T15:15:02.901Z,99.99
2017-11-22T15:20:03.471Z,99.99
2017-11-22T15:25:02.908Z,99.99
2017-11-22T15:30:03.580Z,99.99
2017-11-22T15:35:03.197Z,99.99
2017-11-22T15:40:02.838Z,99.99
2017-11-22T15:45:03.342Z,99.99
2017-11-22T15:50:02.964Z,99.99
2017-11-22T15:55:03.609Z,99.99
2017-11-22T16:00:03.076Z,99.99
2017-11-22T16:05:03.639Z,99.99
2017-11-22T16:10:03.154Z,99.99
2017-11-22T16:15:02.800Z,99.99
2017-11-22T16:25:03.105Z,99.99
2017-11-22T16:30:03.687Z,99.99
2017-11-22T16:35:03.295Z,99.99
2017-11-22T16:45:03.505Z,99.99
2017-11-22T16:50:03.147Z,99.99
2017-11-22T16:55:03.757Z,99.99
2017-11-22T17:00:03.325Z,99.99
2017-11-22T17:05:02.811Z,99.99
2017-11-22T17:10:03.459Z,99.99
2017-11-22T17:15:02.961Z,99.99
2017-11-22T17:20:03.436Z,99.99
2017-11-22T17:25:02.895Z,99.99
2017-11-22T17:30:03.458Z,99.99
2017-11-22T17:35:02.980Z,99.99
2017-11-22T17:40:03.639Z,99.99
2017-11-22T17:45:03.081Z,99.99
2017-11-22T17:50:03.753Z,99.99
2017-11-22T17:55:03.337Z,99.99
2017-11-22T18:00:02.923Z,99.99
2017-11-22T18:05:03.441Z,99.99
2017-11-22T18:10:03.119Z,99.99
2017-11-22T18:15:03.732Z,99.99
2017-11-22T18:20:03.386Z,99.99
2017-11-22T18:25:02.809Z,99.99
2017-11-22T18:30:03.206Z,99.99
2017-11-22T18:35:03.738Z,99.99
2017-11-22T18:40:03.233Z,99.99
2017-11-22T18:45:02.829Z,99.99
2017-11-22T18:50:03.388Z,99.99
2017-11-22T18:55:02.901Z,99.99
2017-11-22T19:00:03.415Z,99.99
2017-11-22T19:05:03.031Z,99.99
2017-11-22T19:10:03.666Z,99.99
2017-11-22T19:15:03.258Z,99.99
2017-11-22T19:20:02.895Z,99.99
2017-11-22T19:25:03.356Z,99.99
2017-11-22T19:30:02.878Z,99.99
2017-11-22T19:35:03.411Z,99.99
2017-11-22T19:40:03.036Z,99.99
2017-11-22T19:45:03.574Z,99.99
2017-11-22T19:50:03.206Z,99.99
2017-11-22T19:55:02.851Z,99.99
2017-11-22T20:00:03.406Z,99.99
2017-11-22T20:05:02.873Z,99.99
2017-11-22T20:10:03.381Z,99.99
2017-11-22T20:15:03.036Z,99.99
2017-11-22T20:20:03.518Z,99.99
2017-11-22T20:25:03.051Z,99.99
2017-11-22T20:30:03.642Z,99.99
2017-11-22T20:35:03.324Z,99.99
2017-11-22T20:40:02.943Z,99.99
2017-11-22T20:45:03.568Z,99.99
2017-11-22T20:50:03.126Z,99.99
2017-11-22T20:55:03.655Z,99.99
2017-11-22T21:00:03.158Z,99.99
2017-11-22T21:05:03.622Z,99.99
2017-11-22T21:10:03.233Z,99.99
2017-11-22T21:15:03.670Z,99.99
2017-11-22T21:20:03.260Z,99.99
2017-11-22T21:25:03.762Z,99.99
2017-11-22T21:30:03.289Z,99.99
2017-11-22T21:35:02.796Z,99.99
2017-11-22T21:40:03.308Z,99.99
2017-11-22T21:45:02.895Z,99.99
2017-11-22T21:50:03.415Z,99.99
2017-11-22T21:55:02.935Z,99.99
2017-11-22T22:00:03.684Z,99.99
2017-11-22T22:05:03.308Z,99.99
2017-11-22T22:10:02.788Z,99.99
2017-11-22T22:15:03.457Z,99.99
2017-11-22T22:20:02.897Z,99.99
2017-11-22T22:25:03.357Z,99.99
2017-11-22T22:30:03.168Z,99.99
2017-11-22T22:35:02.794Z,99.99
2017-11-22T22:40:03.443Z,99.99
2017-11-22T22:45:03.029Z,99.99
2017-11-22T22:50:03.507Z,99.99
2017-11-22T22:55:03.083Z,99.99
2017-11-22T23:00:03.590Z,99.99
2017-11-22T23:05:03.113Z,99.99
2017-11-22T23:10:03.781Z,99.99
2017-11-22T23:15:03.417Z,99.99
2017-11-22T23:20:02.848Z,99.99
2017-11-22T23:25:03.488Z,99.99
2017-11-22T23:30:02.952Z,99.99
2017-11-22T23:35:03.404Z,99.99
2017-11-22T23:40:02.933Z,99.99
2017-11-22T23:45:03.448Z,99.99
2017-11-22T23:50:03.090Z,99.99
2017-11-22T23:55:03.683Z,99.99
